createdAt,value
2023-03-29T00:00:48.431Z,76.40
2023-03-29T00:01:48.442Z,76.71
2023-03-29T00:02:48.936Z,76.61
2023-03-29T00:03:48.500Z,76.50
2023-03-29T00:04:48.381Z,76.71
2023-03-29T00:05:48.369Z,77.22
2023-03-29T00:06:48.382Z,76.71
2023-03-29T00:07:48.347Z,76.61
2023-03-29T00:08:48.333Z,76.61
2023-03-29T00:09:48.327Z,76.50
2023-03-29T00:10:48.307Z,76.61
2023-03-29T00:11:48.315Z,77.01
2023-03-29T00:12:48.295Z,77.15
2023-03-29T00:13:48.269Z,76.64
2023-03-29T00:14:48.261Z,76.50
2023-03-29T00:15:48.244Z,76.81
2023-03-29T00:16:48.285Z,76.29
2023-03-29T00:17:48.256Z,76.61
2023-03-29T00:18:48.206Z,76.61
2023-03-29T00:19:48.198Z,76.29
2023-03-29T00:20:48.176Z,76.29
2023-03-29T00:21:48.181Z,76.40
2023-03-29T00:22:48.150Z,76.29
2023-03-29T00:23:48.147Z,76.40
2023-03-29T00:24:48.244Z,76.61
2023-03-29T00:25:48.111Z,76.40
2023-03-29T00:26:48.115Z,76.29
2023-03-29T00:27:48.092Z,76.61
2023-03-29T00:28:48.074Z,76.64
2023-03-29T00:29:48.070Z,76.32
2023-03-29T00:30:48.052Z,76.81
2023-03-29T00:31:48.082Z,77.12
2023-03-29T00:32:48.212Z,76.40
2023-03-29T00:33:48.005Z,76.50
2023-03-29T00:34:47.995Z,77.22
2023-03-29T00:35:48.044Z,76.71
2023-03-29T00:36:47.972Z,76.71
2023-03-29T00:37:47.974Z,77.15
2023-03-29T00:38:47.975Z,76.95
2023-03-29T00:39:47.936Z,76.74
2023-03-29T00:40:47.925Z,76.74
2023-03-29T00:41:47.916Z,75.88
2023-03-29T00:42:48.057Z,76.50
2023-03-29T00:43:47.880Z,76.71
2023-03-29T00:44:47.869Z,76.95
2023-03-29T00:45:47.873Z,76.74
2023-03-29T00:46:47.894Z,76.84
2023-03-29T00:47:47.902Z,77.05
2023-03-29T00:48:47.830Z,77.05
2023-03-29T00:49:47.810Z,77.05
2023-03-29T00:50:47.801Z,77.05
2023-03-29T00:51:47.798Z,76.95
2023-03-29T00:52:47.796Z,77.26
2023-03-29T00:53:47.772Z,77.15
2023-03-29T00:54:47.748Z,76.95
2023-03-29T00:55:47.768Z,77.47
2023-03-29T00:56:47.730Z,77.15
2023-03-29T00:57:47.789Z,77.47
2023-03-29T00:58:47.699Z,77.57
2023-03-29T00:59:47.690Z,77.92
2023-03-29T01:00:47.670Z,77.36
2023-03-29T01:01:47.719Z,77.57
2023-03-29T01:02:47.713Z,77.78
2023-03-29T01:03:47.708Z,77.57
2023-03-29T01:04:47.689Z,77.26
2023-03-29T01:05:47.616Z,77.36
2023-03-29T01:06:47.582Z,77.47
2023-03-29T01:07:47.583Z,77.78
2023-03-29T01:08:47.561Z,77.57
2023-03-29T01:09:47.556Z,77.78
2023-03-29T01:10:47.531Z,77.36
2023-03-29T01:11:47.522Z,77.36
2023-03-29T01:12:47.522Z,77.36
2023-03-29T01:13:47.492Z,77.19
2023-03-29T01:14:47.470Z,77.19
2023-03-29T01:15:47.460Z,77.61
2023-03-29T01:16:47.470Z,77.50
2023-03-29T01:17:47.482Z,77.50
2023-03-29T01:18:47.451Z,77.71
2023-03-29T01:19:47.427Z,77.61
2023-03-29T01:20:47.398Z,78.23
2023-03-29T01:21:47.415Z,78.33
2023-03-29T01:22:47.391Z,78.02
2023-03-29T01:23:47.382Z,77.92
2023-03-29T01:24:47.370Z,78.23
2023-03-29T01:25:47.350Z,77.92
2023-03-29T01:26:47.316Z,77.95
2023-03-29T01:27:47.346Z,77.85
2023-03-29T01:28:47.292Z,78.47
2023-03-29T01:29:47.288Z,78.37
2023-03-29T01:30:47.268Z,78.16
2023-03-29T01:31:47.275Z,78.37
2023-03-29T01:32:47.276Z,78.78
2023-03-29T01:33:47.235Z,78.99
2023-03-29T01:34:47.207Z,79.13
2023-03-29T01:35:47.231Z,79.24
2023-03-29T01:36:47.192Z,79.75
2023-03-29T01:37:47.184Z,79.85
2023-03-29T01:38:47.156Z,79.85
2023-03-29T01:39:47.149Z,79.75
2023-03-29T01:40:47.130Z,79.65
2023-03-29T01:41:47.131Z,79.75
2023-03-29T01:42:47.117Z,79.55
2023-03-29T01:43:47.115Z,79.85
2023-03-29T01:44:47.088Z,79.44
2023-03-29T01:45:47.098Z,79.24
2023-03-29T01:46:47.050Z,79.44
2023-03-29T01:47:47.132Z,79.34
2023-03-29T01:48:47.032Z,79.03
2023-03-29T01:49:47.016Z,79.24
2023-03-29T01:50:47.008Z,79.13
2023-03-29T01:51:46.997Z,78.92
2023-03-29T01:52:46.990Z,78.92
2023-03-29T01:53:46.971Z,79.13
2023-03-29T01:54:46.949Z,79.85
2023-03-29T01:55:46.948Z,80.21
2023-03-29T01:56:46.957Z,80.93
2023-03-29T01:57:46.936Z,80.93
2023-03-29T01:58:46.911Z,80.89
2023-03-29T01:59:46.891Z,80.68
2023-03-29T02:00:46.869Z,80.73
2023-03-29T02:01:46.885Z,80.62
2023-03-29T02:02:46.912Z,80.31
2023-03-29T02:03:46.903Z,80.41
2023-03-29T02:04:46.823Z,80.62
2023-03-29T02:05:46.823Z,80.52
2023-03-29T02:06:46.796Z,80.73
2023-03-29T02:07:46.806Z,80.52
2023-03-29T02:08:46.768Z,80.31
2023-03-29T02:09:46.768Z,80.52
2023-03-29T02:10:46.736Z,80.41
2023-03-29T02:11:46.738Z,80.21
2023-03-29T02:12:46.736Z,80.52
2023-03-29T02:13:46.715Z,80.52
2023-03-29T02:14:46.734Z,80.76
2023-03-29T02:15:46.725Z,80.66
2023-03-29T02:16:46.655Z,80.76
2023-03-29T02:17:46.772Z,80.55
2023-03-29T02:18:46.648Z,80.55
2023-03-29T02:19:46.628Z,80.55
2023-03-29T02:20:46.621Z,80.87
2023-03-29T02:21:46.603Z,81.01
2023-03-29T02:22:46.605Z,81.32
2023-03-29T02:23:46.574Z,82.15
2023-03-29T02:24:46.559Z,82.15
2023-03-29T02:25:46.567Z,81.94
2023-03-29T02:26:46.544Z,81.87
2023-03-29T02:27:46.536Z,82.39
2023-03-29T02:28:46.504Z,82.18
2023-03-29T02:29:46.511Z,82.39
2023-03-29T02:30:46.523Z,82.50
2023-03-29T02:31:46.529Z,82.81
2023-03-29T02:32:46.569Z,83.01
2023-03-29T02:33:46.518Z,82.91
2023-03-29T02:34:46.444Z,82.91
2023-03-29T02:35:47.643Z,83.33
2023-03-29T02:36:46.416Z,83.12
2023-03-29T02:37:46.411Z,83.12
2023-03-29T02:38:46.388Z,83.84
2023-03-29T02:39:46.371Z,83.43
2023-03-29T02:40:46.362Z,83.22
2023-03-29T02:41:46.359Z,82.91
2023-03-29T02:42:46.359Z,83.64
2023-03-29T02:43:46.345Z,84.16
2023-03-29T02:44:46.297Z,83.95
2023-03-29T02:45:46.313Z,83.64
2023-03-29T02:46:46.293Z,83.64
2023-03-29T02:47:46.355Z,83.95
2023-03-29T02:48:46.250Z,84.05
2023-03-29T02:49:46.249Z,83.91
2023-03-29T02:50:46.217Z,82.98
2023-03-29T02:51:46.221Z,82.11
2023-03-29T02:52:46.218Z,81.87
2023-03-29T02:53:46.230Z,81.04
2023-03-29T02:54:46.227Z,80.16
2023-03-29T02:55:46.200Z,79.71
2023-03-29T02:56:46.205Z,80.23
2023-03-29T02:57:46.151Z,80.13
2023-03-29T02:58:46.192Z,79.58
2023-03-29T02:59:46.135Z,79.88
2023-03-29T03:00:46.118Z,79.64
2023-03-29T03:01:46.164Z,79.64
2023-03-29T03:02:46.127Z,79.85
2023-03-29T03:03:46.249Z,79.30
2023-03-29T03:04:46.044Z,79.19
2023-03-29T03:05:46.054Z,79.30
2023-03-29T03:06:46.018Z,79.40
2023-03-29T03:07:46.076Z,79.30
2023-03-29T03:08:46.012Z,79.81
2023-03-29T03:09:45.989Z,80.22
2023-03-29T03:10:45.975Z,80.02
2023-03-29T03:11:45.962Z,79.91
2023-03-29T03:12:45.942Z,79.50
2023-03-29T03:13:45.947Z,79.50
2023-03-29T03:14:45.920Z,79.30
2023-03-29T03:15:45.924Z,78.67
2023-03-29T03:16:45.982Z,78.57
2023-03-29T03:17:45.904Z,78.47
2023-03-29T03:18:45.949Z,78.78
2023-03-29T03:19:46.028Z,78.88
2023-03-29T03:20:45.898Z,79.30
2023-03-29T03:21:45.833Z,79.02
2023-03-29T03:22:45.825Z,78.71
2023-03-29T03:23:45.833Z,79.02
2023-03-29T03:24:45.803Z,79.19
2023-03-29T03:25:45.794Z,79.60
2023-03-29T03:26:45.787Z,79.50
2023-03-29T03:27:45.771Z,79.95
2023-03-29T03:28:45.779Z,79.71
2023-03-29T03:29:45.817Z,79.91
2023-03-29T03:30:45.712Z,80.12
2023-03-29T03:31:45.786Z,80.22
2023-03-29T03:32:45.764Z,80.57
2023-03-29T03:33:45.709Z,81.20
2023-03-29T03:34:45.715Z,81.40
2023-03-29T03:35:45.707Z,81.47
2023-03-29T03:36:45.639Z,81.78
2023-03-29T03:37:45.619Z,82.13
2023-03-29T03:38:45.621Z,82.44
2023-03-29T03:39:45.593Z,82.86
2023-03-29T03:40:45.604Z,82.71
2023-03-29T03:41:45.566Z,82.71
2023-03-29T03:42:45.559Z,82.86
2023-03-29T03:43:45.552Z,83.26
2023-03-29T03:44:45.622Z,83.68
2023-03-29T03:45:45.603Z,83.78
2023-03-29T03:46:45.502Z,83.99
2023-03-29T03:47:45.524Z,84.09
2023-03-29T03:48:45.505Z,84.51
2023-03-29T03:49:45.471Z,84.82
2023-03-29T03:50:45.468Z,84.82
2023-03-29T03:51:45.557Z,85.34
2023-03-29T03:52:45.463Z,85.69
2023-03-29T03:53:45.432Z,85.89
2023-03-29T03:54:45.408Z,85.79
2023-03-29T03:55:45.391Z,86.17
2023-03-29T03:56:45.398Z,86.68
2023-03-29T03:57:45.365Z,86.58
2023-03-29T03:58:45.379Z,86.68
2023-03-29T03:59:45.340Z,87.04
2023-03-29T04:00:45.331Z,87.14
2023-03-29T04:01:45.365Z,87.14
2023-03-29T04:02:45.358Z,86.93
2023-03-29T04:03:45.510Z,86.62
2023-03-29T04:04:45.285Z,87.04
2023-03-29T04:05:45.282Z,87.04
2023-03-29T04:06:45.243Z,87.24
2023-03-29T04:07:45.228Z,87.38
2023-03-29T04:08:45.284Z,87.80
2023-03-29T04:09:45.233Z,88.53
2023-03-29T04:10:45.211Z,88.42
2023-03-29T04:11:45.192Z,88.73
2023-03-29T04:12:45.185Z,88.53
2023-03-29T04:13:45.157Z,89.15
2023-03-29T04:14:45.138Z,89.15
2023-03-29T04:15:45.153Z,88.94
2023-03-29T04:16:45.134Z,89.15
2023-03-29T04:17:45.184Z,88.94
2023-03-29T04:18:45.350Z,89.46
2023-03-29T04:19:45.081Z,89.83
2023-03-29T04:20:45.083Z,90.04
2023-03-29T04:21:45.040Z,89.94
2023-03-29T04:22:45.045Z,90.45
2023-03-29T04:23:45.066Z,90.35
2023-03-29T04:24:45.015Z,90.56
2023-03-29T04:25:45.022Z,90.56
2023-03-29T04:26:45.008Z,90.56
2023-03-29T04:27:44.968Z,90.66
2023-03-29T04:28:44.986Z,90.56
2023-03-29T04:29:45.093Z,90.56
2023-03-29T04:30:44.955Z,90.35
2023-03-29T04:31:44.997Z,90.45
2023-03-29T04:32:44.939Z,90.77
2023-03-29T04:33:44.935Z,91.18
2023-03-29T04:34:44.921Z,91.18
2023-03-29T04:35:44.943Z,91.60
2023-03-29T04:36:44.882Z,91.49
2023-03-29T04:37:44.895Z,91.60
2023-03-29T04:38:47.825Z,91.80
2023-03-29T04:39:44.820Z,91.80
2023-03-29T04:40:44.822Z,91.80
2023-03-29T04:41:44.801Z,92.22
2023-03-29T04:42:44.796Z,92.22
2023-03-29T04:43:44.807Z,92.11
2023-03-29T04:44:44.782Z,92.11
2023-03-29T04:45:44.754Z,92.11
2023-03-29T04:46:44.770Z,92.01
2023-03-29T04:47:44.750Z,92.01
2023-03-29T04:48:44.727Z,91.91
2023-03-29T04:49:44.689Z,91.91
2023-03-29T04:50:44.693Z,92.01
2023-03-29T04:51:44.666Z,92.01
2023-03-29T04:52:44.670Z,91.91
2023-03-29T04:53:44.657Z,92.43
2023-03-29T04:54:44.635Z,92.53
2023-03-29T04:55:44.605Z,92.43
2023-03-29T04:56:44.618Z,92.22
2023-03-29T04:57:44.607Z,92.22
2023-03-29T04:58:44.690Z,92.43
2023-03-29T04:59:44.580Z,92.32
2023-03-29T05:00:44.589Z,92.22
2023-03-29T05:01:44.598Z,92.32
2023-03-29T05:02:44.614Z,92.32
2023-03-29T05:03:44.549Z,92.43
2023-03-29T05:04:44.545Z,92.43
2023-03-29T05:05:44.484Z,92.43
2023-03-29T05:06:44.474Z,92.63
2023-03-29T05:07:44.451Z,93.15
2023-03-29T05:08:44.465Z,92.84
2023-03-29T05:09:44.424Z,92.53
2023-03-29T05:10:44.448Z,92.59
2023-03-29T05:11:44.415Z,92.63
2023-03-29T05:12:44.429Z,92.49
2023-03-29T05:13:44.434Z,92.49
2023-03-29T05:14:44.435Z,92.69
2023-03-29T05:15:44.438Z,92.59
2023-03-29T05:16:44.483Z,93.00
2023-03-29T05:17:44.394Z,92.80
2023-03-29T05:18:44.479Z,92.69
2023-03-29T05:19:44.314Z,92.59
2023-03-29T05:20:44.297Z,92.69
2023-03-29T05:21:45.463Z,92.69
2023-03-29T05:22:44.294Z,92.69
2023-03-29T05:23:44.316Z,92.69
2023-03-29T05:24:44.259Z,93.00
2023-03-29T05:25:44.224Z,92.90
2023-03-29T05:26:44.249Z,92.80
2023-03-29T05:27:44.553Z,92.69
2023-03-29T05:28:44.208Z,92.69
2023-03-29T05:29:44.175Z,92.55
2023-03-29T05:30:44.154Z,92.55
2023-03-29T05:31:44.174Z,92.65
2023-03-29T05:32:44.624Z,92.44
2023-03-29T05:33:44.173Z,92.24
2023-03-29T05:34:44.145Z,92.03
2023-03-29T05:35:44.189Z,92.34
2023-03-29T05:36:44.082Z,92.34
2023-03-29T05:37:44.064Z,92.13
2023-03-29T05:38:44.067Z,92.24
2023-03-29T05:39:44.040Z,92.34
2023-03-29T05:40:44.026Z,92.24
2023-03-29T05:41:44.022Z,92.13
2023-03-29T05:42:43.997Z,92.03
2023-03-29T05:43:43.994Z,92.03
2023-03-29T05:44:43.972Z,92.03
2023-03-29T05:45:43.993Z,91.82
2023-03-29T05:46:43.954Z,92.13
2023-03-29T05:47:44.001Z,91.88
2023-03-29T05:48:43.938Z,91.78
2023-03-29T05:49:43.914Z,91.99
2023-03-29T05:50:45.787Z,92.19
2023-03-29T05:51:43.896Z,92.40
2023-03-29T05:52:43.900Z,92.09
2023-03-29T05:53:43.869Z,92.19
2023-03-29T05:54:43.851Z,91.99
2023-03-29T05:55:43.957Z,91.88
2023-03-29T05:56:44.000Z,91.67
2023-03-29T05:57:43.810Z,91.78
2023-03-29T05:58:43.815Z,91.78
2023-03-29T05:59:43.782Z,91.88
2023-03-29T06:00:43.797Z,91.78
2023-03-29T06:01:43.758Z,91.88
2023-03-29T06:02:43.929Z,91.57
2023-03-29T06:03:43.851Z,91.32
2023-03-29T06:04:43.802Z,91.22
2023-03-29T06:05:43.704Z,91.32
2023-03-29T06:06:43.703Z,91.22
2023-03-29T06:07:43.690Z,91.01
2023-03-29T06:08:43.670Z,91.22
2023-03-29T06:09:43.663Z,91.01
2023-03-29T06:10:43.644Z,90.70
2023-03-29T06:11:43.690Z,90.80
2023-03-29T06:12:43.625Z,90.70
2023-03-29T06:13:43.615Z,90.66
2023-03-29T06:14:43.607Z,90.45
2023-03-29T06:15:43.570Z,90.14
2023-03-29T06:16:43.597Z,90.25
2023-03-29T06:17:43.616Z,90.04
2023-03-29T06:18:43.542Z,90.14
2023-03-29T06:19:43.538Z,90.25
2023-03-29T06:20:43.520Z,90.14
2023-03-29T06:21:43.535Z,89.42
2023-03-29T06:22:43.489Z,89.73
2023-03-29T06:23:43.472Z,89.32
2023-03-29T06:24:43.475Z,89.22
2023-03-29T06:25:43.443Z,89.38
2023-03-29T06:26:43.424Z,89.28
2023-03-29T06:27:50.934Z,88.96
2023-03-29T06:28:43.417Z,88.96
2023-03-29T06:29:43.403Z,88.55
2023-03-29T06:30:43.379Z,88.65
2023-03-29T06:31:43.469Z,88.96
2023-03-29T06:32:43.372Z,88.55
2023-03-29T06:33:43.338Z,88.55
2023-03-29T06:34:43.356Z,88.31
2023-03-29T06:35:43.325Z,88.41
2023-03-29T06:36:43.337Z,88.31
2023-03-29T06:37:43.287Z,88.10
2023-03-29T06:38:43.399Z,88.41
2023-03-29T06:39:43.277Z,88.51
2023-03-29T06:40:43.259Z,88.41
2023-03-29T06:41:43.238Z,88.41
2023-03-29T06:42:43.239Z,87.79
2023-03-29T06:43:43.213Z,87.54
2023-03-29T06:44:43.218Z,87.17
2023-03-29T06:45:43.181Z,87.54
2023-03-29T06:46:43.220Z,87.85
2023-03-29T06:47:43.252Z,87.44
2023-03-29T06:48:43.157Z,87.74
2023-03-29T06:49:43.140Z,87.34
2023-03-29T06:50:43.122Z,87.29
2023-03-29T06:51:43.110Z,86.88
2023-03-29T06:52:43.112Z,87.08
2023-03-29T06:53:43.079Z,86.88
2023-03-29T06:54:43.090Z,86.68
2023-03-29T06:55:43.052Z,86.88
2023-03-29T06:56:43.060Z,86.78
2023-03-29T06:57:43.031Z,86.88
2023-03-29T06:58:43.034Z,86.88
2023-03-29T06:59:43.080Z,86.57
2023-03-29T07:00:43.000Z,86.78
2023-03-29T07:01:43.101Z,86.78
2023-03-29T07:02:43.054Z,86.26
2023-03-29T07:03:44.712Z,85.95
2023-03-29T07:04:42.994Z,86.05
2023-03-29T07:05:42.926Z,86.12
2023-03-29T07:06:42.908Z,86.12
2023-03-29T07:07:42.905Z,85.71
2023-03-29T07:08:42.884Z,85.71
2023-03-29T07:09:42.883Z,85.39
2023-03-29T07:10:42.852Z,85.39
2023-03-29T07:11:42.852Z,85.30
2023-03-29T07:12:42.836Z,85.19
2023-03-29T07:13:42.903Z,85.15
2023-03-29T07:14:45.117Z,84.94
2023-03-29T07:15:42.795Z,84.74
2023-03-29T07:16:42.833Z,84.64
2023-03-29T07:17:42.787Z,84.64
2023-03-29T07:18:42.787Z,84.49
2023-03-29T07:19:42.747Z,84.49
2023-03-29T07:20:42.718Z,84.59
2023-03-29T07:21:42.715Z,84.08
2023-03-29T07:22:42.701Z,83.87
2023-03-29T07:23:42.684Z,83.77
2023-03-29T07:24:42.768Z,83.77
2023-03-29T07:25:42.662Z,83.61
2023-03-29T07:26:52.365Z,83.61
2023-03-29T07:27:43.630Z,84.22
2023-03-29T07:28:42.620Z,84.39
2023-03-29T07:29:42.624Z,83.98
2023-03-29T07:30:42.592Z,83.98
2023-03-29T07:31:42.583Z,83.67
2023-03-29T07:32:42.831Z,83.12
2023-03-29T07:33:42.609Z,83.01
2023-03-29T07:34:42.560Z,82.91
2023-03-29T07:35:42.550Z,82.25
2023-03-29T07:36:42.513Z,82.46
2023-03-29T07:37:42.527Z,83.04
2023-03-29T07:38:42.494Z,81.76
2023-03-29T07:39:42.497Z,80.74
2023-03-29T07:40:42.461Z,81.05
2023-03-29T07:41:42.445Z,81.01
2023-03-29T07:42:42.427Z,80.08
2023-03-29T07:43:42.413Z,80.08
2023-03-29T07:44:42.410Z,80.08
2023-03-29T07:45:42.482Z,79.53
2023-03-29T07:46:42.380Z,79.08
2023-03-29T07:47:42.420Z,78.64
2023-03-29T07:48:42.356Z,78.16
2023-03-29T07:49:42.353Z,76.04
2023-03-29T07:50:42.320Z,76.24
2023-03-29T07:51:42.318Z,77.37
2023-03-29T07:52:42.296Z,76.00
2023-03-29T07:53:42.288Z,76.31
2023-03-29T07:54:42.298Z,76.45
2023-03-29T07:55:43.193Z,76.38
2023-03-29T07:56:42.278Z,77.20
2023-03-29T07:57:42.235Z,77.61
2023-03-29T07:58:42.226Z,77.92
2023-03-29T07:59:42.226Z,77.92
2023-03-29T08:00:42.225Z,77.92
2023-03-29T08:01:42.193Z,77.20
2023-03-29T08:02:42.249Z,77.34
2023-03-29T08:03:42.198Z,76.93
2023-03-29T08:04:42.224Z,77.85
2023-03-29T08:05:42.342Z,77.95
2023-03-29T08:06:42.172Z,77.95
2023-03-29T08:07:42.120Z,77.85
2023-03-29T08:08:42.119Z,77.85
2023-03-29T08:09:42.120Z,77.20
2023-03-29T08:10:42.111Z,77.30
2023-03-29T08:11:42.056Z,77.20
2023-03-29T08:12:42.039Z,77.40
2023-03-29T08:13:42.062Z,77.78
2023-03-29T08:14:42.020Z,76.75
2023-03-29T08:15:42.035Z,76.24
2023-03-29T08:16:42.008Z,76.14
2023-03-29T08:17:41.998Z,76.45
2023-03-29T08:18:41.990Z,76.45
2023-03-29T08:19:41.968Z,76.55
2023-03-29T08:20:42.932Z,76.55
2023-03-29T08:21:41.914Z,75.32
2023-03-29T08:22:41.913Z,76.14
2023-03-29T08:23:41.905Z,76.34
2023-03-29T08:24:41.886Z,76.24
2023-03-29T08:25:41.875Z,76.24
2023-03-29T08:26:41.916Z,76.65
2023-03-29T08:27:41.843Z,76.65
2023-03-29T08:28:41.839Z,76.65
2023-03-29T08:29:41.845Z,77.37
2023-03-29T08:30:41.838Z,76.86
2023-03-29T08:31:41.864Z,76.24
2023-03-29T08:32:41.828Z,75.93
2023-03-29T08:33:41.816Z,76.96
2023-03-29T08:34:41.738Z,77.58
2023-03-29T08:35:41.789Z,77.26
2023-03-29T08:36:41.713Z,76.86
2023-03-29T08:37:41.707Z,77.26
2023-03-29T08:38:41.802Z,76.96
2023-03-29T08:39:41.683Z,76.65
2023-03-29T08:40:41.678Z,76.51
2023-03-29T08:41:41.685Z,76.00
2023-03-29T08:42:41.638Z,74.98
2023-03-29T08:43:41.680Z,74.77
2023-03-29T08:44:41.652Z,75.49
2023-03-29T08:45:41.609Z,75.32
2023-03-29T08:46:41.653Z,75.11
2023-03-29T08:47:41.628Z,75.38
2023-03-29T08:48:41.555Z,75.28
2023-03-29T08:49:41.556Z,75.28
2023-03-29T08:50:41.548Z,75.69
2023-03-29T08:51:41.524Z,74.87
2023-03-29T08:52:41.506Z,75.38
2023-03-29T08:53:41.495Z,75.90
2023-03-29T08:54:41.488Z,75.96
2023-03-29T08:55:41.481Z,74.43
2023-03-29T08:56:41.461Z,74.36
2023-03-29T08:57:41.440Z,75.28
2023-03-29T08:58:41.424Z,74.98
2023-03-29T08:59:41.434Z,75.38
2023-03-29T09:00:41.434Z,75.28
2023-03-29T09:01:41.439Z,75.49
2023-03-29T09:02:41.498Z,75.01
2023-03-29T09:03:41.555Z,75.21
2023-03-29T09:04:41.481Z,76.20
2023-03-29T09:05:41.438Z,76.31
2023-03-29T09:06:41.415Z,76.10
2023-03-29T09:07:41.304Z,75.86
2023-03-29T09:08:41.300Z,74.94
2023-03-29T09:09:41.360Z,74.98
2023-03-29T09:10:41.284Z,74.46
2023-03-29T09:11:41.279Z,74.87
2023-03-29T09:12:41.253Z,75.38
2023-03-29T09:13:41.233Z,75.18
2023-03-29T09:14:41.218Z,75.45
2023-03-29T09:15:41.337Z,74.98
2023-03-29T09:16:41.197Z,74.73
2023-03-29T09:17:41.193Z,75.35
2023-03-29T09:18:41.160Z,75.04
2023-03-29T09:19:41.157Z,74.94
2023-03-29T09:20:41.144Z,75.11
2023-03-29T09:21:41.134Z,75.21
2023-03-29T09:22:41.136Z,75.21
2023-03-29T09:23:41.152Z,74.49
2023-03-29T09:24:41.093Z,74.90
2023-03-29T09:25:52.664Z,75.31
2023-03-29T09:26:42.047Z,74.90
2023-03-29T09:27:41.047Z,75.52
2023-03-29T09:28:41.025Z,75.01
2023-03-29T09:29:41.017Z,74.60
2023-03-29T09:30:41.027Z,74.49
2023-03-29T09:31:41.070Z,75.01
2023-03-29T09:32:40.975Z,75.21
2023-03-29T09:33:40.957Z,75.11
2023-03-29T09:34:40.974Z,74.39
2023-03-29T09:35:40.956Z,74.15
2023-03-29T09:36:40.911Z,74.97
2023-03-29T09:37:40.921Z,74.08
2023-03-29T09:38:40.882Z,74.87
2023-03-29T09:39:40.884Z,74.77
2023-03-29T09:40:40.886Z,74.56
2023-03-29T09:41:40.855Z,74.05
2023-03-29T09:42:40.860Z,74.15
2023-03-29T09:43:40.821Z,73.30
2023-03-29T09:44:40.812Z,73.13
2023-03-29T09:45:40.850Z,74.02
2023-03-29T09:46:40.797Z,73.61
2023-03-29T09:47:40.847Z,73.16
2023-03-29T09:48:40.747Z,72.38
2023-03-29T09:49:40.745Z,72.69
2023-03-29T09:50:40.742Z,73.16
2023-03-29T09:51:40.726Z,72.96
2023-03-29T09:52:40.718Z,72.75
2023-03-29T09:53:40.702Z,72.62
2023-03-29T09:54:40.698Z,72.72
2023-03-29T09:55:40.692Z,72.52
2023-03-29T09:56:40.774Z,73.23
2023-03-29T09:57:40.636Z,71.87
2023-03-29T09:58:40.614Z,71.97
2023-03-29T09:59:40.611Z,71.29
2023-03-29T10:00:40.602Z,71.90
2023-03-29T10:01:40.635Z,72.11
2023-03-29T10:02:40.625Z,71.59
2023-03-29T10:03:40.562Z,72.31
2023-03-29T10:04:40.614Z,72.14
2023-03-29T10:05:40.541Z,71.83
2023-03-29T10:06:40.510Z,72.75
2023-03-29T10:07:40.496Z,72.86
2023-03-29T10:08:40.521Z,72.55
2023-03-29T10:09:40.487Z,72.75
2023-03-29T10:10:40.465Z,72.96
2023-03-29T10:11:40.443Z,72.55
2023-03-29T10:12:40.444Z,72.86
2023-03-29T10:13:40.424Z,72.96
2023-03-29T10:14:40.396Z,73.47
2023-03-29T10:15:40.423Z,72.86
2023-03-29T10:16:40.589Z,72.99
2023-03-29T10:17:40.443Z,73.30
2023-03-29T10:18:40.380Z,73.81
2023-03-29T10:19:40.338Z,73.91
2023-03-29T10:20:40.344Z,73.95
2023-03-29T10:21:40.317Z,74.36
2023-03-29T10:22:40.299Z,74.36
2023-03-29T10:23:40.301Z,74.08
2023-03-29T10:24:40.288Z,74.29
2023-03-29T10:25:42.293Z,74.49
2023-03-29T10:26:40.242Z,75.21
2023-03-29T10:27:40.237Z,75.01
2023-03-29T10:28:40.225Z,75.04
2023-03-29T10:29:40.211Z,75.35
2023-03-29T10:30:40.308Z,75.31
2023-03-29T10:31:40.220Z,75.31
2023-03-29T10:32:40.193Z,75.31
2023-03-29T10:33:48.699Z,75.52
2023-03-29T10:34:40.164Z,75.31
2023-03-29T10:35:40.251Z,75.07
2023-03-29T10:36:40.124Z,74.66
2023-03-29T10:37:40.102Z,75.07
2023-03-29T10:38:40.095Z,75.18
2023-03-29T10:39:40.083Z,74.77
2023-03-29T10:40:40.161Z,75.24
2023-03-29T10:41:40.125Z,74.43
2023-03-29T10:42:40.052Z,74.11
2023-03-29T10:43:40.056Z,74.43
2023-03-29T10:44:40.020Z,73.71
2023-03-29T10:45:40.063Z,74.43
2023-03-29T10:46:40.203Z,75.10
2023-03-29T10:47:40.005Z,74.60
2023-03-29T10:48:39.955Z,73.88
2023-03-29T10:49:39.951Z,73.78
2023-03-29T10:50:39.948Z,74.22
2023-03-29T10:51:39.944Z,73.71
2023-03-29T10:52:39.902Z,74.22
2023-03-29T10:53:39.898Z,75.14
2023-03-29T10:54:39.879Z,75.35
2023-03-29T10:55:39.906Z,75.14
2023-03-29T10:56:39.899Z,74.63
2023-03-29T10:57:39.924Z,75.52
2023-03-29T10:58:39.849Z,74.90
2023-03-29T10:59:39.822Z,75.10
2023-03-29T11:00:39.807Z,75.10
2023-03-29T11:01:39.868Z,74.90
2023-03-29T11:02:39.902Z,75.42
2023-03-29T11:03:39.911Z,75.62
2023-03-29T11:04:39.746Z,75.82
2023-03-29T11:05:39.752Z,76.13
2023-03-29T11:06:40.293Z,75.31
2023-03-29T11:07:39.707Z,75.89
2023-03-29T11:08:39.699Z,75.89
2023-03-29T11:09:39.754Z,75.75
2023-03-29T11:10:39.655Z,75.24
2023-03-29T11:11:39.664Z,74.11
2023-03-29T11:12:39.640Z,74.02
2023-03-29T11:13:39.636Z,74.73
2023-03-29T11:14:39.603Z,74.59
2023-03-29T11:15:39.669Z,74.49
2023-03-29T11:16:39.614Z,74.29
2023-03-29T11:17:39.646Z,74.05
2023-03-29T11:18:39.552Z,74.46
2023-03-29T11:19:39.547Z,73.33
2023-03-29T11:20:39.535Z,73.23
2023-03-29T11:21:39.532Z,73.44
2023-03-29T11:22:39.495Z,73.64
2023-03-29T11:23:39.508Z,73.64
2023-03-29T11:24:39.492Z,73.64
2023-03-29T11:25:39.461Z,73.50
2023-03-29T11:26:39.464Z,73.30
2023-03-29T11:27:39.434Z,74.22
2023-03-29T11:28:39.415Z,73.91
2023-03-29T11:29:39.406Z,73.98
2023-03-29T11:30:39.392Z,73.23
2023-03-29T11:31:39.426Z,72.82
2023-03-29T11:32:39.411Z,72.62
2023-03-29T11:33:39.355Z,72.72
2023-03-29T11:34:39.346Z,73.71
2023-03-29T11:35:39.345Z,71.02
2023-03-29T11:36:39.333Z,70.78
2023-03-29T11:37:39.301Z,70.38
2023-03-29T11:38:39.305Z,71.06
2023-03-29T11:39:39.278Z,71.47
2023-03-29T11:40:39.310Z,70.78
2023-03-29T11:41:39.291Z,71.12
2023-03-29T11:42:39.247Z,71.84
2023-03-29T11:43:39.227Z,71.80
2023-03-29T11:44:39.205Z,71.87
2023-03-29T11:45:39.193Z,70.58
2023-03-29T11:46:39.236Z,71.19
2023-03-29T11:47:39.265Z,70.34
2023-03-29T11:48:39.162Z,69.97
2023-03-29T11:49:39.148Z,70.75
2023-03-29T11:50:39.123Z,70.31
2023-03-29T11:51:39.132Z,71.57
2023-03-29T11:52:39.110Z,67.91
2023-03-29T11:53:39.107Z,68.62
2023-03-29T11:54:39.074Z,68.52
2023-03-29T11:55:39.063Z,68.72
2023-03-29T11:56:39.215Z,68.72
2023-03-29T11:57:39.029Z,68.92
2023-03-29T11:58:39.361Z,69.77
2023-03-29T11:59:39.026Z,70.18
2023-03-29T12:00:39.007Z,70.01
2023-03-29T12:01:39.018Z,70.21
2023-03-29T12:02:39.033Z,69.46
2023-03-29T12:03:39.050Z,71.23
2023-03-29T12:04:38.951Z,72.21
2023-03-29T12:05:38.926Z,72.41
2023-03-29T12:06:38.935Z,71.91
2023-03-29T12:07:38.892Z,70.55
2023-03-29T12:08:38.905Z,70.58
2023-03-29T12:09:38.905Z,71.70
2023-03-29T12:10:38.861Z,71.39
2023-03-29T12:11:38.854Z,71.60
2023-03-29T12:12:38.834Z,71.50
2023-03-29T12:13:38.825Z,71.80
2023-03-29T12:14:38.809Z,72.41
2023-03-29T12:15:38.789Z,71.77
2023-03-29T12:16:38.851Z,71.47
2023-03-29T12:17:38.805Z,71.39
2023-03-29T12:18:38.751Z,71.70
2023-03-29T12:19:41.801Z,72.01
2023-03-29T12:20:38.732Z,71.60
2023-03-29T12:21:38.731Z,72.28
2023-03-29T12:22:38.700Z,71.87
2023-03-29T12:23:38.695Z,72.17
2023-03-29T12:24:38.691Z,71.97
2023-03-29T12:25:38.672Z,71.56
2023-03-29T12:26:38.670Z,71.16
2023-03-29T12:27:38.638Z,71.26
2023-03-29T12:28:38.620Z,71.73
2023-03-29T12:29:38.608Z,72.65
2023-03-29T12:30:38.592Z,73.71
2023-03-29T12:31:38.684Z,74.28
2023-03-29T12:32:38.612Z,73.97
2023-03-29T12:33:38.554Z,73.67
2023-03-29T12:34:38.543Z,73.16
2023-03-29T12:35:38.583Z,74.05
2023-03-29T12:36:38.526Z,74.96
2023-03-29T12:37:38.617Z,74.21
2023-03-29T12:38:38.546Z,74.69
2023-03-29T12:39:38.506Z,73.84
2023-03-29T12:40:38.458Z,73.50
2023-03-29T12:41:38.489Z,72.48
2023-03-29T12:42:38.435Z,73.16
2023-03-29T12:43:38.421Z,71.26
2023-03-29T12:44:38.416Z,73.36
2023-03-29T12:45:38.396Z,72.86
2023-03-29T12:46:38.452Z,71.84
2023-03-29T12:47:38.408Z,72.58
2023-03-29T12:48:38.360Z,72.48
2023-03-29T12:49:38.336Z,72.58
2023-03-29T12:50:38.327Z,72.78
2023-03-29T12:51:38.326Z,72.82
2023-03-29T12:52:38.310Z,73.88